VVTSVVCT

Guest
Details From VVTS - TAN SON NHAT INTL
To VVCT - CAN THO
Flight Number -
Tags generated
Created
Modified
Stats Distance 71 nm / 131 km
Max Altitude 6,300 ft / 1,920 m
Waypoints 4
Social Downloads 8
Likes 0
Share VATSIM

Download

Looking for another format? Having issues loading an existing format? Contact us
Advertisement - Login to hide

Notes

Basic altitude profile: - Ascent Rate: 2500ft/min - Ascent Speed: 250kts - Cruise Altitude: 35000ft - Cruise Speed: 420kts - Descent Rate: 1500ft/min - Descent Speed: 250kts Options: - Use NATs: yes - Use PACOTS: yes - Use low airways: yes - Use high airways: yes

Route

VVTS KANTA W16 CT VVCT

ID Type Via Altitude Latitude Longitude Leg Dist Tot Dist Heading (true) Name
O VVTS APT - 0 ft / 0 m 10.81875˚ 106.65173˚ - 0 nm - TAN SON NHAT INTL
KANTA FIX - 6,300 ft / 1,920 m 10.38806˚ 106.10694˚ 41 nm 41 nm 231° / 231° -
CT NDB W16 (AWY-LO) 4,000 ft / 1,219 m 10.09139˚ 105.73028˚ 28 nm 69 nm 231° / 231° CAN THO NDB
O VVCT APT - 0 ft / 0 m 10.08512˚ 105.71192˚ 1 nm 70 nm 251° / 251° CAN THO

Altitude Profile

Advertisement - Login to hide

VVTS

Details ICAO VVTS (SGN)
Name TAN SON NHAT INTL
Region Vietnam
Timezone Asia/Ho_Chi_Minh (UTC+7.0)
Stats Elevation 33 ft / 10 m (AMSL)
Location 10.818750° 106.651735°
Runways 2
Magnetic Variation 0.488° W

METAR

VVTS 130130Z VRB01KT 6000 SCT015 SCT050 27/26 Q1013 NOSIG

Decode

TAF

TAF VVTS 122300Z 1300/1406 VRB03KT 5000 BR SCT017 SCT040 BECMG 1301/1302 9999 NSW BECMG 1303/1304 32010KT TEMPO 1312/1318 5000 SHRA BKN015 FEW017CB

Decode

Departure Runways

ID Width Length Bearing (true) Bearing (mag) Surface Threshold Offset Overrun Length
07L 148 ft / 45 m 9,998 ft / 3,047 m 69.00° 69.49° Asphalt 0 ft / 0 m 1,040 ft / 317 m
07R 148 ft / 45 m 12,617 ft / 3,846 m 68.90° 69.39° Concrete 2,543 ft / 775 m 863 ft / 263 m
25L 148 ft / 45 m 12,617 ft / 3,846 m 248.90° 249.39° Concrete 0 ft / 0 m 1,027 ft / 313 m
25R 148 ft / 45 m 9,998 ft / 3,047 m 249.00° 249.49° Asphalt 0 ft / 0 m 1,053 ft / 321 m

VVCT

Details ICAO VVCT (VCA)
Name CAN THO
Region Vietnam
Timezone Asia/Ho_Chi_Minh (UTC+7.0)
Stats Elevation 9 ft / 3 m (AMSL)
Location 10.085121° 105.711922°
Runways 1
Magnetic Variation 0.384° W

METAR

VVCT 130130Z 16005KT 140V200 8000 FEW013 28/24 Q1013 NOSIG

Decode

TAF

TAF VVCT 122300Z 1300/1324 VRB03KT 9999 SCT015 SCT040 BECMG 1302/1303 09010KT TEMPO 1308/1312 5000 SHRA BKN015 FEW017CB

Decode

Destination Runways

ID Width Length Bearing (true) Bearing (mag) Surface Threshold Offset Overrun Length
06 100 ft / 30 m 7,891 ft / 2,405 m 59.86° 60.24° Asphalt 0 ft / 0 m 505 ft / 154 m
24 100 ft / 30 m 7,891 ft / 2,405 m 239.86° 240.24° Asphalt 0 ft / 0 m 460 ft / 140 m

Popular Alternatives